sensor_id;sensor_type;location;lat;lon;timestamp;temperature;humidity
16532;DHT22;8378;57.698;11.958;2022-07-10T00:00:26;26.20;99.90
16532;DHT22;8378;57.698;11.958;2022-07-10T00:02:52;26.20;99.90
16532;DHT22;8378;57.698;11.958;2022-07-10T00:05:18;26.20;99.90
16532;DHT22;8378;57.698;11.958;2022-07-10T00:07:44;26.20;99.90
16532;DHT22;8378;57.698;11.958;2022-07-10T00:10:10;26.20;99.90
16532;DHT22;8378;57.698;11.958;2022-07-10T00:12:36;26.20;99.90
16532;DHT22;8378;57.698;11.958;2022-07-10T00:15:03;26.20;99.90
16532;DHT22;8378;57.698;11.958;2022-07-10T00:17:29;26.20;99.90
16532;DHT22;8378;57.698;11.958;2022-07-10T00:19:54;26.20;99.90
16532;DHT22;8378;57.698;11.958;2022-07-10T00:22:21;26.10;99.90
16532;DHT22;8378;57.698;11.958;2022-07-10T00:24:46;26.10;99.90
16532;DHT22;8378;57.698;11.958;2022-07-10T00:27:12;26.10;99.90
16532;DHT22;8378;57.698;11.958;2022-07-10T00:29:37;26.10;99.90
16532;DHT22;8378;57.698;11.958;2022-07-10T00:32:04;26.10;99.90
16532;DHT22;8378;57.698;11.958;2022-07-10T00:34:30;26.10;99.90
16532;DHT22;8378;57.698;11.958;2022-07-10T00:36:55;26.10;99.90
16532;DHT22;8378;57.698;11.958;2022-07-10T00:39:21;26.10;99.90
16532;DHT22;8378;57.698;11.958;2022-07-10T00:41:47;26.10;99.90
16532;DHT22;8378;57.698;11.958;2022-07-10T00:44:12;26.10;99.90
16532;DHT22;8378;57.698;11.958;2022-07-10T00:46:38;26.10;99.90
16532;DHT22;8378;57.698;11.958;2022-07-10T00:49:06;26.10;99.90
16532;DHT22;8378;57.698;11.958;2022-07-10T00:51:31;26.10;99.90
16532;DHT22;8378;57.698;11.958;2022-07-10T00:53:59;26.10;99.90
16532;DHT22;8378;57.698;11.958;2022-07-10T00:56:27;26.10;99.90
16532;DHT22;8378;57.698;11.958;2022-07-10T00:58:53;26.10;99.90
16532;DHT22;8378;57.698;11.958;2022-07-10T01:01:19;26.10;99.90
16532;DHT22;8378;57.698;11.958;2022-07-10T01:03:46;26.10;99.90
16532;DHT22;8378;57.698;11.958;2022-07-10T01:06:13;26.10;99.90
16532;DHT22;8378;57.698;11.958;2022-07-10T01:08:39;26.00;99.90
16532;DHT22;8378;57.698;11.958;2022-07-10T01:11:05;26.00;99.90
16532;DHT22;8378;57.698;11.958;2022-07-10T01:13:30;26.00;99.90
16532;DHT22;8378;57.698;11.958;2022-07-10T01:15:57;26.00;99.90
16532;DHT22;8378;57.698;11.958;2022-07-10T01:18:24;25.90;99.90
16532;DHT22;8378;57.698;11.958;2022-07-10T01:20:54;25.90;99.90
16532;DHT22;8378;57.698;11.958;2022-07-10T01:23:20;25.90;99.90
16532;DHT22;8378;57.698;11.958;2022-07-10T01:25:47;25.90;99.90
16532;DHT22;8378;57.698;11.958;2022-07-10T01:28:12;25.90;99.90
16532;DHT22;8378;57.698;11.958;2022-07-10T01:30:38;25.80;99.90
16532;DHT22;8378;57.698;11.958;2022-07-10T01:33:04;25.80;99.90
16532;DHT22;8378;57.698;11.958;2022-07-10T01:35:29;25.80;99.90
16532;DHT22;8378;57.698;11.958;2022-07-10T01:37:55;25.80;99.90
16532;DHT22;8378;57.698;11.958;2022-07-10T01:40:21;25.80;99.90
16532;DHT22;8378;57.698;11.958;2022-07-10T01:42:46;25.80;99.90
16532;DHT22;8378;57.698;11.958;2022-07-10T01:45:12;25.80;99.90
16532;DHT22;8378;57.698;11.958;2022-07-10T01:47:38;25.80;99.90
16532;DHT22;8378;57.698;11.958;2022-07-10T01:50:04;25.80;99.90
16532;DHT22;8378;57.698;11.958;2022-07-10T01:52:30;25.80;99.90
16532;DHT22;8378;57.698;11.958;2022-07-10T01:54:56;25.80;99.90
16532;DHT22;8378;57.698;11.958;2022-07-10T01:57:21;25.80;99.90
16532;DHT22;8378;57.698;11.958;2022-07-10T01:59:47;25.80;99.90
16532;DHT22;8378;57.698;11.958;2022-07-10T02:02:13;25.80;99.90
16532;DHT22;8378;57.698;11.958;2022-07-10T02:04:38;25.80;99.90
16532;DHT22;8378;57.698;11.958;2022-07-10T02:07:11;25.80;99.90
16532;DHT22;8378;57.698;11.958;2022-07-10T02:09:38;25.80;99.90
16532;DHT22;8378;57.698;11.958;2022-07-10T02:12:07;25.70;99.90
16532;DHT22;8378;57.698;11.958;2022-07-10T02:14:34;25.70;99.90
16532;DHT22;8378;57.698;11.958;2022-07-10T02:16:59;25.70;99.90
16532;DHT22;8378;57.698;11.958;2022-07-10T02:19:25;25.70;99.90
16532;DHT22;8378;57.698;11.958;2022-07-10T02:21:51;25.70;99.90
16532;DHT22;8378;57.698;11.958;2022-07-10T02:24:17;25.60;99.90
16532;DHT22;8378;57.698;11.958;2022-07-10T02:26:42;25.60;99.90
16532;DHT22;8378;57.698;11.958;2022-07-10T02:29:09;25.60;99.90
16532;DHT22;8378;57.698;11.958;2022-07-10T02:31:35;25.60;99.90
16532;DHT22;8378;57.698;11.958;2022-07-10T02:34:11;25.60;99.90
16532;DHT22;8378;57.698;11.958;2022-07-10T02:36:38;25.60;99.90
16532;DHT22;8378;57.698;11.958;2022-07-10T02:39:05;25.60;99.90
16532;DHT22;8378;57.698;11.958;2022-07-10T02:41:30;25.60;99.90
16532;DHT22;8378;57.698;11.958;2022-07-10T02:43:56;25.60;99.90
16532;DHT22;8378;57.698;11.958;2022-07-10T02:46:22;25.60;99.90
16532;DHT22;8378;57.698;11.958;2022-07-10T02:48:47;25.60;99.90
16532;DHT22;8378;57.698;11.958;2022-07-10T02:51:13;25.60;99.90
16532;DHT22;8378;57.698;11.958;2022-07-10T02:53:39;25.60;99.90
16532;DHT22;8378;57.698;11.958;2022-07-10T02:56:05;25.60;99.90
16532;DHT22;8378;57.698;11.958;2022-07-10T02:58:31;25.60;99.90
16532;DHT22;8378;57.698;11.958;2022-07-10T03:00:57;25.60;99.90
16532;DHT22;8378;57.698;11.958;2022-07-10T03:03:23;25.60;99.90
16532;DHT22;8378;57.698;11.958;2022-07-10T03:05:48;25.60;99.90
16532;DHT22;8378;57.698;11.958;2022-07-10T03:08:14;25.60;99.90
16532;DHT22;8378;57.698;11.958;2022-07-10T03:10:39;25.60;99.90
16532;DHT22;8378;57.698;11.958;2022-07-10T03:13:06;25.60;99.90
16532;DHT22;8378;57.698;11.958;2022-07-10T03:15:32;25.60;99.90
16532;DHT22;8378;57.698;11.958;2022-07-10T03:17:58;25.60;99.90
16532;DHT22;8378;57.698;11.958;2022-07-10T03:20:24;25.50;99.90
16532;DHT22;8378;57.698;11.958;2022-07-10T03:22:49;25.50;99.90
16532;DHT22;8378;57.698;11.958;2022-07-10T03:25:15;25.50;99.90
16532;DHT22;8378;57.698;11.958;2022-07-10T03:27:41;25.50;99.90
16532;DHT22;8378;57.698;11.958;2022-07-10T03:30:07;25.40;99.90
16532;DHT22;8378;57.698;11.958;2022-07-10T03:32:33;25.40;99.90
16532;DHT22;8378;57.698;11.958;2022-07-10T03:34:59;25.40;99.90
16532;DHT22;8378;57.698;11.958;2022-07-10T03:37:26;25.40;99.90
16532;DHT22;8378;57.698;11.958;2022-07-10T03:39:51;25.40;99.90
16532;DHT22;8378;57.698;11.958;2022-07-10T03:42:17;25.40;99.90
16532;DHT22;8378;57.698;11.958;2022-07-10T03:44:43;25.40;99.90
16532;DHT22;8378;57.698;11.958;2022-07-10T03:47:09;25.40;99.90
16532;DHT22;8378;57.698;11.958;2022-07-10T03:49:34;25.50;99.90
16532;DHT22;8378;57.698;11.958;2022-07-10T03:52:00;25.40;99.90
16532;DHT22;8378;57.698;11.958;2022-07-10T03:54:27;25.40;99.90
16532;DHT22;8378;57.698;11.958;2022-07-10T03:56:53;25.40;99.90
16532;DHT22;8378;57.698;11.958;2022-07-10T03:59:38;25.40;99.90
16532;DHT22;8378;57.698;11.958;2022-07-10T04:02:03;25.50;99.90
16532;DHT22;8378;57.698;11.958;2022-07-10T04:04:29;25.50;99.90
16532;DHT22;8378;57.698;11.958;2022-07-10T04:06:55;25.50;99.90
16532;DHT22;8378;57.698;11.958;2022-07-10T04:09:21;25.50;99.90
16532;DHT22;8378;57.698;11.958;2022-07-10T04:11:46;25.50;99.90
16532;DHT22;8378;57.698;11.958;2022-07-10T04:14:12;25.50;99.90
16532;DHT22;8378;57.698;11.958;2022-07-10T04:16:38;25.50;99.90
16532;DHT22;8378;57.698;11.958;2022-07-10T04:19:03;25.50;99.90
16532;DHT22;8378;57.698;11.958;2022-07-10T04:21:29;25.50;99.90
16532;DHT22;8378;57.698;11.958;2022-07-10T04:23:54;25.50;99.90
16532;DHT22;8378;57.698;11.958;2022-07-10T04:26:20;25.50;99.90
16532;DHT22;8378;57.698;11.958;2022-07-10T04:28:46;25.50;99.90
16532;DHT22;8378;57.698;11.958;2022-07-10T04:31:11;25.50;99.90
16532;DHT22;8378;57.698;11.958;2022-07-10T04:33:37;25.50;99.90
16532;DHT22;8378;57.698;11.958;2022-07-10T04:36:03;25.50;99.90
16532;DHT22;8378;57.698;11.958;2022-07-10T04:38:28;25.50;99.90
16532;DHT22;8378;57.698;11.958;2022-07-10T04:40:54;25.50;99.90
16532;DHT22;8378;57.698;11.958;2022-07-10T04:43:20;25.50;99.90
16532;DHT22;8378;57.698;11.958;2022-07-10T04:45:46;25.50;99.90
16532;DHT22;8378;57.698;11.958;2022-07-10T04:48:11;25.50;99.90
16532;DHT22;8378;57.698;11.958;2022-07-10T04:50:37;25.60;99.90
16532;DHT22;8378;57.698;11.958;2022-07-10T04:53:03;25.60;99.90
16532;DHT22;8378;57.698;11.958;2022-07-10T04:55:29;25.60;99.90
16532;DHT22;8378;57.698;11.958;2022-07-10T04:57:54;25.60;99.90
16532;DHT22;8378;57.698;11.958;2022-07-10T05:00:21;25.60;99.90
16532;DHT22;8378;57.698;11.958;2022-07-10T05:02:47;25.60;99.90
16532;DHT22;8378;57.698;11.958;2022-07-10T05:05:13;25.60;99.90
16532;DHT22;8378;57.698;11.958;2022-07-10T05:07:38;25.60;99.90
16532;DHT22;8378;57.698;11.958;2022-07-10T05:10:04;25.60;99.90
16532;DHT22;8378;57.698;11.958;2022-07-10T05:12:30;25.50;99.90
16532;DHT22;8378;57.698;11.958;2022-07-10T05:14:56;25.50;99.90
16532;DHT22;8378;57.698;11.958;2022-07-10T05:17:22;25.50;99.90
16532;DHT22;8378;57.698;11.958;2022-07-10T05:19:47;25.50;99.90
16532;DHT22;8378;57.698;11.958;2022-07-10T05:22:13;25.40;99.90
16532;DHT22;8378;57.698;11.958;2022-07-10T05:24:39;25.40;99.90
16532;DHT22;8378;57.698;11.958;2022-07-10T05:27:05;25.40;99.90
16532;DHT22;8378;57.698;11.958;2022-07-10T05:29:31;25.40;99.90
16532;DHT22;8378;57.698;11.958;2022-07-10T05:31:56;25.40;99.90
16532;DHT22;8378;57.698;11.958;2022-07-10T05:34:22;25.40;99.90
16532;DHT22;8378;57.698;11.958;2022-07-10T05:36:47;25.40;99.90
16532;DHT22;8378;57.698;11.958;2022-07-10T05:39:13;25.40;99.90
16532;DHT22;8378;57.698;11.958;2022-07-10T05:41:38;25.40;99.90
16532;DHT22;8378;57.698;11.958;2022-07-10T05:44:05;25.40;99.90
16532;DHT22;8378;57.698;11.958;2022-07-10T05:46:30;25.40;99.90
16532;DHT22;8378;57.698;11.958;2022-07-10T05:48:56;25.40;99.90
16532;DHT22;8378;57.698;11.958;2022-07-10T05:51:22;25.40;99.90
16532;DHT22;8378;57.698;11.958;2022-07-10T05:53:47;25.40;99.90
16532;DHT22;8378;57.698;11.958;2022-07-10T05:56:13;25.40;99.90
16532;DHT22;8378;57.698;11.958;2022-07-10T05:58:39;25.50;99.90
16532;DHT22;8378;57.698;11.958;2022-07-10T06:01:04;25.50;99.90
16532;DHT22;8378;57.698;11.958;2022-07-10T06:03:30;25.50;99.90
16532;DHT22;8378;57.698;11.958;2022-07-10T06:05:55;25.50;99.90
16532;DHT22;8378;57.698;11.958;2022-07-10T06:08:21;25.50;99.90
16532;DHT22;8378;57.698;11.958;2022-07-10T06:10:47;25.50;99.90
16532;DHT22;8378;57.698;11.958;2022-07-10T06:13:12;25.50;99.90
16532;DHT22;8378;57.698;11.958;2022-07-10T06:15:38;25.50;99.90
16532;DHT22;8378;57.698;11.958;2022-07-10T06:18:04;25.50;99.90
16532;DHT22;8378;57.698;11.958;2022-07-10T06:20:30;25.50;99.90
16532;DHT22;8378;57.698;11.958;2022-07-10T06:22:56;25.50;99.90
16532;DHT22;8378;57.698;11.958;2022-07-10T06:25:22;25.50;99.90
16532;DHT22;8378;57.698;11.958;2022-07-10T06:27:48;25.50;99.90
16532;DHT22;8378;57.698;11.958;2022-07-10T06:30:14;25.50;99.90
16532;DHT22;8378;57.698;11.958;2022-07-10T06:32:40;25.50;99.90
16532;DHT22;8378;57.698;11.958;2022-07-10T06:35:05;25.60;99.90
16532;DHT22;8378;57.698;11.958;2022-07-10T06:37:33;25.50;99.90
16532;DHT22;8378;57.698;11.958;2022-07-10T06:39:58;25.50;99.90
16532;DHT22;8378;57.698;11.958;2022-07-10T06:42:24;25.50;99.90
16532;DHT22;8378;57.698;11.958;2022-07-10T06:44:50;25.60;99.90
16532;DHT22;8378;57.698;11.958;2022-07-10T06:47:17;25.60;99.90
16532;DHT22;8378;57.698;11.958;2022-07-10T06:50:06;25.60;99.90
16532;DHT22;8378;57.698;11.958;2022-07-10T06:52:33;25.60;99.90
16532;DHT22;8378;57.698;11.958;2022-07-10T06:55:00;25.60;99.90
16532;DHT22;8378;57.698;11.958;2022-07-10T06:57:26;25.60;99.90
16532;DHT22;8378;57.698;11.958;2022-07-10T06:59:52;25.70;99.90
16532;DHT22;8378;57.698;11.958;2022-07-10T07:02:18;25.70;99.90
16532;DHT22;8378;57.698;11.958;2022-07-10T07:04:44;25.70;99.90
16532;DHT22;8378;57.698;11.958;2022-07-10T07:07:11;25.70;99.90
16532;DHT22;8378;57.698;11.958;2022-07-10T07:09:37;25.80;99.90
16532;DHT22;8378;57.698;11.958;2022-07-10T07:12:03;25.80;99.90
16532;DHT22;8378;57.698;11.958;2022-07-10T07:14:29;25.80;99.90
16532;DHT22;8378;57.698;11.958;2022-07-10T07:16:55;25.90;99.90
16532;DHT22;8378;57.698;11.958;2022-07-10T07:19:26;25.90;99.90
16532;DHT22;8378;57.698;11.958;2022-07-10T07:21:58;25.90;99.90
16532;DHT22;8378;57.698;11.958;2022-07-10T07:24:43;25.90;99.90
16532;DHT22;8378;57.698;11.958;2022-07-10T07:27:10;25.90;99.90
16532;DHT22;8378;57.698;11.958;2022-07-10T07:29:35;25.90;99.90
16532;DHT22;8378;57.698;11.958;2022-07-10T07:32:01;25.90;99.90
16532;DHT22;8378;57.698;11.958;2022-07-10T07:34:27;25.90;99.90
16532;DHT22;8378;57.698;11.958;2022-07-10T07:36:52;25.90;99.90
16532;DHT22;8378;57.698;11.958;2022-07-10T07:39:18;25.90;99.90
16532;DHT22;8378;57.698;11.958;2022-07-10T07:41:43;26.00;99.90
16532;DHT22;8378;57.698;11.958;2022-07-10T07:44:09;26.00;99.90
16532;DHT22;8378;57.698;11.958;2022-07-10T07:46:34;26.00;99.90
16532;DHT22;8378;57.698;11.958;2022-07-10T07:49:00;26.00;99.90
16532;DHT22;8378;57.698;11.958;2022-07-10T07:51:26;26.00;99.90
16532;DHT22;8378;57.698;11.958;2022-07-10T07:53:51;26.10;99.90
16532;DHT22;8378;57.698;11.958;2022-07-10T07:56:17;26.10;99.90
16532;DHT22;8378;57.698;11.958;2022-07-10T07:58:42;26.10;99.90
16532;DHT22;8378;57.698;11.958;2022-07-10T08:01:08;26.10;99.90
16532;DHT22;8378;57.698;11.958;2022-07-10T08:03:34;26.10;99.90
16532;DHT22;8378;57.698;11.958;2022-07-10T08:06:00;26.20;99.90
16532;DHT22;8378;57.698;11.958;2022-07-10T08:08:26;26.20;99.90
16532;DHT22;8378;57.698;11.958;2022-07-10T08:10:52;26.20;99.90
16532;DHT22;8378;57.698;11.958;2022-07-10T08:13:17;26.20;99.90
16532;DHT22;8378;57.698;11.958;2022-07-10T08:15:43;26.20;99.90
16532;DHT22;8378;57.698;11.958;2022-07-10T08:18:08;26.20;99.90
16532;DHT22;8378;57.698;11.958;2022-07-10T08:20:34;26.20;99.90
16532;DHT22;8378;57.698;11.958;2022-07-10T08:23:00;26.30;99.90
16532;DHT22;8378;57.698;11.958;2022-07-10T08:25:27;26.30;99.90
16532;DHT22;8378;57.698;11.958;2022-07-10T08:27:53;26.30;99.90
16532;DHT22;8378;57.698;11.958;2022-07-10T08:30:18;26.30;99.90
16532;DHT22;8378;57.698;11.958;2022-07-10T08:32:44;26.30;99.90
16532;DHT22;8378;57.698;11.958;2022-07-10T08:35:10;26.30;99.90
16532;DHT22;8378;57.698;11.958;2022-07-10T08:37:40;26.30;99.90
16532;DHT22;8378;57.698;11.958;2022-07-10T08:40:09;26.30;99.90
16532;DHT22;8378;57.698;11.958;2022-07-10T08:42:34;26.40;99.90
16532;DHT22;8378;57.698;11.958;2022-07-10T08:45:02;26.30;99.90
16532;DHT22;8378;57.698;11.958;2022-07-10T08:47:28;26.40;99.90
16532;DHT22;8378;57.698;11.958;2022-07-10T08:49:56;26.40;99.90
16532;DHT22;8378;57.698;11.958;2022-07-10T08:52:27;26.40;99.90
16532;DHT22;8378;57.698;11.958;2022-07-10T08:54:56;26.40;99.90
16532;DHT22;8378;57.698;11.958;2022-07-10T08:57:23;26.50;99.90
16532;DHT22;8378;57.698;11.958;2022-07-10T08:59:49;26.50;99.90
16532;DHT22;8378;57.698;11.958;2022-07-10T09:02:14;26.50;99.90
16532;DHT22;8378;57.698;11.958;2022-07-10T09:04:41;26.50;99.90
16532;DHT22;8378;57.698;11.958;2022-07-10T09:07:07;26.50;99.90
16532;DHT22;8378;57.698;11.958;2022-07-10T09:09:53;26.60;99.90
16532;DHT22;8378;57.698;11.958;2022-07-10T09:12:21;26.60;99.90
16532;DHT22;8378;57.698;11.958;2022-07-10T09:14:47;26.60;99.90
16532;DHT22;8378;57.698;11.958;2022-07-10T09:17:13;26.60;99.90
16532;DHT22;8378;57.698;11.958;2022-07-10T09:19:39;26.60;99.90
16532;DHT22;8378;57.698;11.958;2022-07-10T09:22:06;26.60;99.90
16532;DHT22;8378;57.698;11.958;2022-07-10T09:24:41;26.60;99.90
16532;DHT22;8378;57.698;11.958;2022-07-10T09:27:07;26.60;99.90
16532;DHT22;8378;57.698;11.958;2022-07-10T09:29:50;26.60;99.90
16532;DHT22;8378;57.698;11.958;2022-07-10T09:32:26;26.60;99.90
16532;DHT22;8378;57.698;11.958;2022-07-10T09:34:53;26.60;99.90
16532;DHT22;8378;57.698;11.958;2022-07-10T09:37:40;26.60;99.90
16532;DHT22;8378;57.698;11.958;2022-07-10T09:40:08;26.70;99.90
16532;DHT22;8378;57.698;11.958;2022-07-10T09:42:36;26.70;99.90
16532;DHT22;8378;57.698;11.958;2022-07-10T09:47:41;26.70;99.90
16532;DHT22;8378;57.698;11.958;2022-07-10T09:50:33;26.80;99.90
16532;DHT22;8378;57.698;11.958;2022-07-10T09:55:29;26.80;99.90
16532;DHT22;8378;57.698;11.958;2022-07-10T09:58:00;26.80;99.90
16532;DHT22;8378;57.698;11.958;2022-07-10T10:00:29;26.80;99.90
16532;DHT22;8378;57.698;11.958;2022-07-10T10:02:56;26.80;99.90
16532;DHT22;8378;57.698;11.958;2022-07-10T10:08:16;26.90;99.90
16532;DHT22;8378;57.698;11.958;2022-07-10T10:10:47;26.80;99.90
16532;DHT22;8378;57.698;11.958;2022-07-10T10:13:21;26.90;99.90
16532;DHT22;8378;57.698;11.958;2022-07-10T10:15:49;26.90;99.90
16532;DHT22;8378;57.698;11.958;2022-07-10T10:18:17;26.90;99.90
16532;DHT22;8378;57.698;11.958;2022-07-10T10:20:45;26.90;99.90
16532;DHT22;8378;57.698;11.958;2022-07-10T10:23:22;26.90;99.90
16532;DHT22;8378;57.698;11.958;2022-07-10T10:25:49;26.90;99.90
16532;DHT22;8378;57.698;11.958;2022-07-10T10:28:17;26.90;99.90
16532;DHT22;8378;57.698;11.958;2022-07-10T10:30:50;26.90;99.90
16532;DHT22;8378;57.698;11.958;2022-07-10T10:36:01;26.90;99.90
16532;DHT22;8378;57.698;11.958;2022-07-10T10:46:34;26.90;99.90
16532;DHT22;8378;57.698;11.958;2022-07-10T10:49:06;27.00;99.90
16532;DHT22;8378;57.698;11.958;2022-07-10T10:51:59;26.90;99.90
16532;DHT22;8378;57.698;11.958;2022-07-10T10:54:26;27.00;99.90
16532;DHT22;8378;57.698;11.958;2022-07-10T10:57:11;27.00;99.90
16532;DHT22;8378;57.698;11.958;2022-07-10T10:59:51;27.00;99.90
16532;DHT22;8378;57.698;11.958;2022-07-10T11:02:24;27.00;99.90
16532;DHT22;8378;57.698;11.958;2022-07-10T11:04:51;27.00;99.90
16532;DHT22;8378;57.698;11.958;2022-07-10T11:13:05;27.10;99.90
16532;DHT22;8378;57.698;11.958;2022-07-10T11:15:34;27.10;99.90
16532;DHT22;8378;57.698;11.958;2022-07-10T11:20:38;27.10;99.90
16532;DHT22;8378;57.698;11.958;2022-07-10T11:31:16;27.00;99.90
16532;DHT22;8378;57.698;11.958;2022-07-10T11:33:43;27.00;99.90
16532;DHT22;8378;57.698;11.958;2022-07-10T11:36:13;27.10;99.90
16532;DHT22;8378;57.698;11.958;2022-07-10T11:38:40;27.10;99.90
16532;DHT22;8378;57.698;11.958;2022-07-10T11:41:18;27.00;99.90
16532;DHT22;8378;57.698;11.958;2022-07-10T11:43:58;27.00;99.90
16532;DHT22;8378;57.698;11.958;2022-07-10T11:46:26;27.10;99.90
16532;DHT22;8378;57.698;11.958;2022-07-10T11:48:53;27.10;99.90
16532;DHT22;8378;57.698;11.958;2022-07-10T11:56:31;27.00;99.90
16532;DHT22;8378;57.698;11.958;2022-07-10T11:59:05;27.10;99.90
16532;DHT22;8378;57.698;11.958;2022-07-10T12:01:41;27.10;99.90
16532;DHT22;8378;57.698;11.958;2022-07-10T12:04:07;27.10;99.90
16532;DHT22;8378;57.698;11.958;2022-07-10T12:06:36;27.10;99.90
16532;DHT22;8378;57.698;11.958;2022-07-10T12:09:10;27.10;99.90
16532;DHT22;8378;57.698;11.958;2022-07-10T12:11:36;27.10;99.90
16532;DHT22;8378;57.698;11.958;2022-07-10T12:14:19;27.10;99.90
16532;DHT22;8378;57.698;11.958;2022-07-10T12:16:47;27.10;99.90
16532;DHT22;8378;57.698;11.958;2022-07-10T12:19:14;27.10;99.90
16532;DHT22;8378;57.698;11.958;2022-07-10T12:21:42;27.10;99.90
16532;DHT22;8378;57.698;11.958;2022-07-10T12:24:08;27.20;99.90
16532;DHT22;8378;57.698;11.958;2022-07-10T12:26:36;27.20;99.90
16532;DHT22;8378;57.698;11.958;2022-07-10T12:29:03;27.20;99.90
16532;DHT22;8378;57.698;11.958;2022-07-10T12:31:33;27.20;99.90
16532;DHT22;8378;57.698;11.958;2022-07-10T12:34:04;27.20;99.90
16532;DHT22;8378;57.698;11.958;2022-07-10T12:36:49;27.20;99.90
16532;DHT22;8378;57.698;11.958;2022-07-10T12:39:25;27.20;99.90
16532;DHT22;8378;57.698;11.958;2022-07-10T12:42:01;27.20;99.90
16532;DHT22;8378;57.698;11.958;2022-07-10T12:44:45;27.20;99.90
16532;DHT22;8378;57.698;11.958;2022-07-10T12:47:15;27.20;99.90
16532;DHT22;8378;57.698;11.958;2022-07-10T12:52:29;27.20;99.90
16532;DHT22;8378;57.698;11.958;2022-07-10T12:57:52;27.20;99.90
16532;DHT22;8378;57.698;11.958;2022-07-10T13:00:23;27.20;99.90
16532;DHT22;8378;57.698;11.958;2022-07-10T13:02:56;27.20;99.90
16532;DHT22;8378;57.698;11.958;2022-07-10T13:05:41;27.20;99.90
16532;DHT22;8378;57.698;11.958;2022-07-10T13:08:12;27.20;99.90
16532;DHT22;8378;57.698;11.958;2022-07-10T13:10:41;27.20;99.90
16532;DHT22;8378;57.698;11.958;2022-07-10T13:13:07;27.20;99.90
16532;DHT22;8378;57.698;11.958;2022-07-10T13:15:33;27.20;99.90
16532;DHT22;8378;57.698;11.958;2022-07-10T13:18:19;27.20;99.90
16532;DHT22;8378;57.698;11.958;2022-07-10T13:20:48;27.10;99.90
16532;DHT22;8378;57.698;11.958;2022-07-10T13:23:14;27.10;99.90
16532;DHT22;8378;57.698;11.958;2022-07-10T13:25:41;27.10;99.90
16532;DHT22;8378;57.698;11.958;2022-07-10T13:28:08;27.10;99.90
16532;DHT22;8378;57.698;11.958;2022-07-10T13:30:35;27.10;99.90
16532;DHT22;8378;57.698;11.958;2022-07-10T13:33:01;27.10;99.90
16532;DHT22;8378;57.698;11.958;2022-07-10T13:35:28;27.10;99.90
16532;DHT22;8378;57.698;11.958;2022-07-10T13:37:55;27.10;99.90
16532;DHT22;8378;57.698;11.958;2022-07-10T13:40:21;27.10;99.90
16532;DHT22;8378;57.698;11.958;2022-07-10T13:42:46;27.10;99.90
16532;DHT22;8378;57.698;11.958;2022-07-10T13:45:12;27.10;99.90
16532;DHT22;8378;57.698;11.958;2022-07-10T13:47:38;27.10;99.90
16532;DHT22;8378;57.698;11.958;2022-07-10T13:50:04;27.10;99.90
16532;DHT22;8378;57.698;11.958;2022-07-10T13:52:29;27.10;99.90
16532;DHT22;8378;57.698;11.958;2022-07-10T13:54:55;27.10;99.90
16532;DHT22;8378;57.698;11.958;2022-07-10T13:57:22;27.10;99.90
16532;DHT22;8378;57.698;11.958;2022-07-10T13:59:48;27.10;99.90
16532;DHT22;8378;57.698;11.958;2022-07-10T14:02:14;27.10;99.90
16532;DHT22;8378;57.698;11.958;2022-07-10T14:04:39;27.10;99.90
16532;DHT22;8378;57.698;11.958;2022-07-10T14:07:05;27.10;99.90
16532;DHT22;8378;57.698;11.958;2022-07-10T14:09:30;27.10;99.90
16532;DHT22;8378;57.698;11.958;2022-07-10T14:11:56;27.20;99.90
16532;DHT22;8378;57.698;11.958;2022-07-10T14:14:22;27.20;99.90
16532;DHT22;8378;57.698;11.958;2022-07-10T14:16:48;27.20;99.90
16532;DHT22;8378;57.698;11.958;2022-07-10T14:19:15;27.20;99.90
16532;DHT22;8378;57.698;11.958;2022-07-10T14:21:41;27.20;99.90
16532;DHT22;8378;57.698;11.958;2022-07-10T14:24:06;27.20;99.90
16532;DHT22;8378;57.698;11.958;2022-07-10T14:26:32;27.20;99.90
16532;DHT22;8378;57.698;11.958;2022-07-10T14:29:03;27.20;99.90
16532;DHT22;8378;57.698;11.958;2022-07-10T14:31:29;27.20;99.90
16532;DHT22;8378;57.698;11.958;2022-07-10T14:33:55;27.30;99.90
16532;DHT22;8378;57.698;11.958;2022-07-10T14:36:21;27.30;99.90
16532;DHT22;8378;57.698;11.958;2022-07-10T14:38:56;27.30;99.90
16532;DHT22;8378;57.698;11.958;2022-07-10T14:41:24;27.30;99.90
16532;DHT22;8378;57.698;11.958;2022-07-10T14:43:53;27.30;99.90
16532;DHT22;8378;57.698;11.958;2022-07-10T14:46:18;27.30;99.90
16532;DHT22;8378;57.698;11.958;2022-07-10T14:48:44;27.30;99.90
16532;DHT22;8378;57.698;11.958;2022-07-10T14:51:10;27.30;99.90
16532;DHT22;8378;57.698;11.958;2022-07-10T14:53:36;27.30;99.90
16532;DHT22;8378;57.698;11.958;2022-07-10T14:56:05;27.30;99.90
16532;DHT22;8378;57.698;11.958;2022-07-10T14:58:34;27.40;99.90
16532;DHT22;8378;57.698;11.958;2022-07-10T15:01:00;27.40;99.90
16532;DHT22;8378;57.698;11.958;2022-07-10T15:03:27;27.30;99.90
16532;DHT22;8378;57.698;11.958;2022-07-10T15:05:53;27.30;99.90
16532;DHT22;8378;57.698;11.958;2022-07-10T15:08:25;27.40;99.90
16532;DHT22;8378;57.698;11.958;2022-07-10T15:10:51;27.40;99.90
16532;DHT22;8378;57.698;11.958;2022-07-10T15:13:17;27.30;99.90
16532;DHT22;8378;57.698;11.958;2022-07-10T15:15:42;27.40;99.90
16532;DHT22;8378;57.698;11.958;2022-07-10T15:18:08;27.40;99.90
16532;DHT22;8378;57.698;11.958;2022-07-10T15:20:35;27.40;99.90
16532;DHT22;8378;57.698;11.958;2022-07-10T15:23:05;27.40;99.90
16532;DHT22;8378;57.698;11.958;2022-07-10T15:25:31;27.40;99.90
16532;DHT22;8378;57.698;11.958;2022-07-10T15:27:56;27.30;99.90
16532;DHT22;8378;57.698;11.958;2022-07-10T15:30:22;27.30;99.90
16532;DHT22;8378;57.698;11.958;2022-07-10T15:32:48;27.30;99.90
16532;DHT22;8378;57.698;11.958;2022-07-10T15:35:14;27.30;99.90
16532;DHT22;8378;57.698;11.958;2022-07-10T15:37:39;27.30;99.90
16532;DHT22;8378;57.698;11.958;2022-07-10T15:40:05;27.30;99.90
16532;DHT22;8378;57.698;11.958;2022-07-10T15:42:31;27.30;99.90
16532;DHT22;8378;57.698;11.958;2022-07-10T15:44:57;27.40;99.90
16532;DHT22;8378;57.698;11.958;2022-07-10T15:47:23;27.30;99.90
16532;DHT22;8378;57.698;11.958;2022-07-10T15:49:49;27.30;99.90
16532;DHT22;8378;57.698;11.958;2022-07-10T15:52:14;27.40;99.90
16532;DHT22;8378;57.698;11.958;2022-07-10T15:54:40;27.40;99.90
16532;DHT22;8378;57.698;11.958;2022-07-10T15:57:07;27.30;99.90
16532;DHT22;8378;57.698;11.958;2022-07-10T15:59:33;27.30;99.90
16532;DHT22;8378;57.698;11.958;2022-07-10T16:02:00;27.30;99.90
16532;DHT22;8378;57.698;11.958;2022-07-10T16:04:26;27.40;99.90
16532;DHT22;8378;57.698;11.958;2022-07-10T16:06:53;27.40;99.90
16532;DHT22;8378;57.698;11.958;2022-07-10T16:09:19;27.30;99.90
16532;DHT22;8378;57.698;11.958;2022-07-10T16:11:45;27.30;99.90
16532;DHT22;8378;57.698;11.958;2022-07-10T16:14:12;27.30;99.90
16532;DHT22;8378;57.698;11.958;2022-07-10T16:16:37;27.30;99.90